Terminal Aerodrome Forecast
Issued by NWS Charleston, WV

Current Version | Previous Version | Graphics & Text | Print | Product List | Glossary On
Versions: 1 2 3 4 5 6 7 8 9 10 11 12 13 14 15 16 17 18 19 20 21 22 23
892
FTUS41 KRLX 161753 RRA
TAFHTS
TAF
KHTS 161753Z 1618/1718 32008KT P6SM SCT040
     FM162300 28005KT P6SM BKN070
     FM170200 00000KT P6SM BKN150
     FM171200 21005KT P6SM SCT015
     FM171700 23009KT P6SM FEW015=

USA.gov is the U.S. government's official web portal to all federal, state and local government web resources and services.